Time;durP1;ratioP1;P1;durP2;ratioP2;P2;SDS_P1;SDS_P2;PMS_P1;PMS_P2;Temp;Humidity;BMP_temperature;BMP_pressure;BME280_temperature;BME280_humidity;BME280_pressure;Samples;Min_cycle;Max_cycle;Signal;HPM_P1;HPM_P2
2023/01/23 00:02:13;;;;;;;2.47;2.03;;;1.30;99.90;2.30;97574.00;;;;5050983;28;20451;-69
2023/01/23 00:05:04;;;;;;;3.13;2.17;;;1.20;99.90;2.30;97578.00;;;;5050266;28;20431;-69
2023/01/23 00:07:52;;;;;;;2.07;1.87;;;1.10;99.90;2.20;97581.00;;;;5037030;28;20436;-68
2023/01/23 00:10:41;;;;;;;2.30;1.57;;;1.10;99.90;2.10;97571.00;;;;5049193;28;20537;-68
2023/01/23 00:13:30;;;;;;;1.67;1.57;;;1.10;99.90;2.10;97583.00;;;;5030200;28;20440;-69
2023/01/23 00:16:21;;;;;;;1.83;1.67;;;1.00;99.90;2.10;97574.00;;;;5022105;28;20444;-69
2023/01/23 00:19:11;;;;;;;2.57;2.37;;;0.90;99.90;2.00;97569.00;;;;5030540;28;20431;-69
2023/01/23 00:22:01;;;;;;;1.60;1.50;;;0.90;99.90;1.90;97563.00;;;;5046834;28;20525;-69
2023/01/23 00:24:50;;;;;;;2.33;1.70;;;0.80;99.90;1.90;97562.00;;;;5050545;28;20465;-69
2023/01/23 00:27:38;;;;;;;2.10;1.87;;;0.70;99.90;1.90;97564.00;;;;5042143;28;21086;-68
2023/01/23 00:30:27;;;;;;;1.60;1.50;;;0.80;99.90;1.80;97560.00;;;;5038730;28;20458;-68
2023/01/23 00:33:16;;;;;;;2.30;2.07;;;0.70;99.90;1.90;97574.00;;;;5029557;28;20490;-68
2023/01/23 00:36:06;;;;;;;3.93;2.33;;;0.70;99.90;2.00;97569.00;;;;5034992;28;20852;-68
2023/01/23 00:38:57;;;;;;;2.37;2.17;;;0.70;99.90;1.90;97571.00;;;;5024738;28;20940;-68
2023/01/23 00:41:47;;;;;;;2.17;1.97;;;0.80;99.90;1.90;97576.00;;;;5028671;28;20446;-69
2023/01/23 00:44:35;;;;;;;2.97;2.03;;;0.80;99.90;2.00;97585.00;;;;5044698;28;20431;-71
2023/01/23 00:47:24;;;;;;;2.20;2.03;;;0.90;99.90;2.00;97583.00;;;;5043077;28;20462;-71
2023/01/23 00:50:13;;;;;;;2.47;2.27;;;0.80;99.90;2.00;97586.00;;;;5048895;28;20518;-72
2023/01/23 00:53:02;;;;;;;4.67;2.90;;;0.80;99.90;1.70;97568.00;;;;5050043;28;20939;-71
2023/01/23 00:55:53;;;;;;;7.53;2.80;;;0.80;99.90;1.40;97575.00;;;;5038016;28;20440;-70
2023/01/23 00:58:42;;;;;;;5.50;3.53;;;0.70;99.90;1.40;97568.00;;;;5047986;28;20482;-72
2023/01/23 01:01:32;;;;;;;5.23;2.97;;;0.70;99.90;1.50;97558.00;;;;5039009;28;20467;-72
2023/01/23 01:04:21;;;;;;;5.53;3.70;;;0.60;99.90;1.30;97553.00;;;;5025096;28;20432;-71
2023/01/23 01:07:10;;;;;;;3.67;2.17;;;0.60;99.90;1.50;97552.00;;;;5024349;28;20526;-72
2023/01/23 01:09:58;;;;;;;2.53;2.03;;;0.70;99.90;1.50;97555.00;;;;5029254;28;20436;-71
2023/01/23 01:12:49;;;;;;;2.70;2.30;;;0.50;99.90;1.50;97541.00;;;;5033877;28;20509;-71
2023/01/23 01:15:38;;;;;;;5.37;2.97;;;0.50;99.90;1.60;97540.00;;;;5026825;28;20440;-71
2023/01/23 01:18:27;;;;;;;2.63;2.10;;;0.50;99.90;1.60;97537.00;;;;5031022;28;20435;-71
2023/01/23 01:21:16;;;;;;;3.13;2.37;;;0.50;99.90;1.60;97529.00;;;;5030320;28;20440;-72
2023/01/23 01:24:06;;;;;;;1.90;1.67;;;0.50;99.90;1.70;97529.00;;;;5048491;28;20435;-71
2023/01/23 01:26:54;;;;;;;3.43;3.13;;;0.50;99.90;1.80;97525.00;;;;5045775;28;20459;-71
2023/01/23 01:29:45;;;;;;;4.57;2.90;;;0.60;99.90;1.90;97513.00;;;;5042178;28;20498;-70
2023/01/23 01:32:36;;;;;;;2.87;2.67;;;0.60;99.90;2.00;97510.00;;;;5029343;28;20425;-70
2023/01/23 01:35:25;;;;;;;1.93;1.83;;;0.70;99.90;2.00;97496.00;;;;5036006;28;20440;-70
2023/01/23 01:38:14;;;;;;;3.83;2.37;;;0.80;99.90;2.10;97503.00;;;;5049108;28;20513;-70
2023/01/23 01:41:03;;;;;;;2.50;2.17;;;1.70;99.90;2.10;97494.00;;;;5047890;28;20443;-71
2023/01/23 01:43:55;;;;;;;2.43;2.17;;;0.90;99.90;2.20;97493.00;;;;5047832;28;20844;-71
2023/01/23 01:46:47;;;;;;;3.20;1.97;;;0.90;99.90;2.20;97478.00;;;;5035272;28;20477;-70
2023/01/23 01:49:36;;;;;;;2.27;2.07;;;1.00;99.90;2.20;97469.00;;;;5048607;28;20435;-71
2023/01/23 01:52:26;;;;;;;2.30;2.10;;;1.00;99.90;2.20;97465.00;;;;5047234;28;20490;-71
2023/01/23 01:55:14;;;;;;;4.63;2.97;;;1.00;99.90;2.30;97457.00;;;;5040818;28;20433;-70
2023/01/23 01:58:03;;;;;;;2.53;2.13;;;1.00;99.90;2.30;97452.00;;;;5046725;28;20485;-71
2023/01/23 02:00:53;;;;;;;2.63;2.43;;;1.10;99.90;2.40;97422.00;;;;5031866;28;20453;-70
2023/01/23 02:03:45;;;;;;;2.97;2.50;;;1.20;99.90;2.30;97423.00;;;;5030120;28;20427;-71
2023/01/23 02:06:33;;;;;;;3.00;2.80;;;1.20;99.90;2.30;97404.00;;;;5033091;28;20460;-70
2023/01/23 02:09:26;;;;;;;3.27;2.00;;;1.20;99.90;2.40;97420.00;;;;5027399;28;20514;-68
2023/01/23 02:12:15;;;;;;;2.03;1.60;;;1.30;99.90;2.60;97419.00;;;;5024419;28;20498;-69
2023/01/23 02:15:06;;;;;;;2.37;2.03;;;1.30;99.90;2.60;97419.00;;;;5035055;28;20460;-68
2023/01/23 02:17:55;;;;;;;2.47;2.27;;;1.40;99.90;2.60;97430.00;;;;5025627;28;20425;-68
2023/01/23 02:20:47;;;;;;;3.23;2.93;;;1.40;99.90;2.70;97433.00;;;;5031832;28;20490;-69
2023/01/23 02:23:47;;;;;;;2.13;1.93;;;1.40;99.90;2.70;97447.00;;;;5047658;28;20419;-69
2023/01/23 02:26:40;;;;;;;3.43;2.00;;;1.50;99.90;2.70;97440.00;;;;5045644;28;20493;-69
2023/01/23 02:29:42;;;;;;;3.80;2.57;;;1.50;99.90;2.80;97436.00;;;;5043474;28;20447;-70
2023/01/23 02:32:30;;;;;;;2.67;2.47;;;1.60;99.90;2.90;97445.00;;;;5028746;28;20965;-70
2023/01/23 02:35:26;;;;;;;3.43;2.30;;;1.60;99.90;2.80;97422.00;;;;5028983;28;21006;-70
2023/01/23 02:38:16;;;;;;;3.03;2.50;;;1.60;99.90;2.80;97423.00;;;;5039294;28;21148;-70
2023/01/23 02:41:08;;;;;;;2.43;1.80;;;1.60;99.90;3.00;97433.00;;;;5052721;28;20876;-70
2023/01/23 02:44:05;;;;;;;2.33;2.07;;;1.70;99.90;3.00;97439.00;;;;5051357;28;20430;-69
2023/01/23 02:46:54;;;;;;;2.37;1.90;;;1.70;99.90;3.00;97448.00;;;;5039880;28;20451;-69
2023/01/23 02:49:43;;;;;;;2.50;1.73;;;1.80;99.90;3.00;97447.00;;;;5050630;28;20454;-69
2023/01/23 02:52:33;;;;;;;3.47;2.40;;;1.80;99.90;3.00;97455.00;;;;5046881;28;20436;-69
2023/01/23 02:55:22;;;;;;;2.70;2.50;;;1.80;99.90;3.10;97451.00;;;;5032059;28;20443;-69
2023/01/23 03:01:18;;;;;;;2.90;2.57;;;1.90;99.90;3.30;97468.00;;;;5031834;28;20452;-69
2023/01/23 03:04:07;;;;;;;2.70;2.50;;;1.90;99.90;3.30;97456.00;;;;5031738;28;20433;-70
2023/01/23 03:06:58;;;;;;;2.83;2.20;;;2.00;99.90;3.40;97456.00;;;;5044047;28;20843;-70
2023/01/23 03:09:47;;;;;;;2.17;1.60;;;2.10;99.90;3.20;97439.00;;;;5051817;28;20418;-68
2023/01/23 03:12:41;;;;;;;2.20;2.00;;;2.10;99.90;3.50;97452.00;;;;5040822;28;20443;-70
2023/01/23 03:15:30;;;;;;;3.83;2.57;;;2.20;99.90;3.50;97437.00;;;;5027532;28;20449;-69
2023/01/23 03:18:20;;;;;;;3.43;2.47;;;2.30;99.90;3.50;97451.00;;;;5033115;28;20432;-69
2023/01/23 03:21:09;;;;;;;2.50;2.30;;;2.30;99.90;3.50;97432.00;;;;5031792;28;20987;-69
2023/01/23 03:23:58;;;;;;;4.63;2.17;;;2.30;99.90;3.40;97447.00;;;;5031082;28;20452;-68
2023/01/23 03:26:48;;;;;;;2.93;2.40;;;2.30;99.90;3.50;97446.00;;;;5047639;28;20524;-68
2023/01/23 03:32:44;;;;;;;2.43;2.10;;;2.40;99.90;3.60;97433.00;;;;5031170;28;20452;-68
2023/01/23 03:35:34;;;;;;;2.33;2.23;;;2.40;99.90;3.50;97424.00;;;;5032411;28;20428;-70
2023/01/23 03:38:23;;;;;;;2.30;2.10;;;2.30;99.90;3.30;97397.00;;;;5048525;28;20436;-68
2023/01/23 03:41:26;;;;;;;3.37;2.30;;;2.30;99.90;3.50;97397.00;;;;5049718;28;20450;-67
2023/01/23 03:44:17;;;;;;;2.93;2.57;;;2.30;99.90;3.50;97409.00;;;;5039504;28;20435;-69
2023/01/23 03:47:06;;;;;;;2.17;2.00;;;2.30;99.90;3.40;97398.00;;;;5040917;28;20454;-69
2023/01/23 03:49:55;;;;;;;2.87;2.57;;;2.30;99.90;3.50;97396.00;;;;5049608;28;20426;-70
2023/01/23 03:52:45;;;;;;;2.70;2.23;;;2.40;99.90;3.50;97402.00;;;;5047331;28;20927;-69
2023/01/23 03:55:34;;;;;;;2.67;2.03;;;2.40;99.90;3.60;97399.00;;;;5030390;28;20420;-68
2023/01/23 03:58:23;;;;;;;2.37;2.10;;;2.40;99.90;3.60;97403.00;;;;5029729;28;20432;-69
2023/01/23 04:01:13;;;;;;;3.37;2.87;;;2.40;99.90;3.60;97407.00;;;;5030990;28;20474;-71
2023/01/23 04:04:02;;;;;;;8.47;2.90;;;2.40;99.90;3.60;97409.00;;;;5032230;28;20428;-68
2023/01/23 04:06:51;;;;;;;6.07;2.17;;;2.40;99.90;3.60;97411.00;;;;5050176;28;20442;-70
2023/01/23 04:09:41;;;;;;;2.07;1.90;;;2.40;99.90;3.60;97428.00;;;;5049624;28;20821;-70
2023/01/23 04:12:30;;;;;;;1.80;1.70;;;2.40;99.90;3.60;97411.00;;;;5041783;28;20440;-70
2023/01/23 04:15:19;;;;;;;2.77;2.17;;;2.50;99.90;3.60;97409.00;;;;5041513;28;20444;-71
2023/01/23 04:18:07;;;;;;;4.13;2.60;;;2.50;99.90;3.30;97403.00;;;;5024787;28;20425;-68
2023/01/23 04:20:57;;;;;;;2.73;2.27;;;2.50;99.90;3.60;97417.00;;;;5035499;28;20439;-68
2023/01/23 04:23:46;;;;;;;3.03;2.40;;;2.50;99.90;3.60;97394.00;;;;5049316;28;21186;-69
2023/01/23 04:26:36;;;;;;;3.20;2.43;;;2.40;99.90;3.60;97375.00;;;;5048695;28;20432;-69
2023/01/23 04:29:25;;;;;;;2.43;2.23;;;2.60;99.90;3.70;97388.00;;;;5046777;28;20472;-70
2023/01/23 04:32:14;;;;;;;3.67;2.67;;;2.60;99.90;3.70;97374.00;;;;5029522;28;20435;-69
2023/01/23 04:35:03;;;;;;;2.53;2.00;;;2.60;99.90;3.80;97378.00;;;;5024453;28;20446;-69
2023/01/23 04:37:52;;;;;;;2.03;1.80;;;2.60;99.90;3.60;97374.00;;;;5049638;28;20423;-67
2023/01/23 04:40:40;;;;;;;2.20;1.70;;;2.70;99.90;3.80;97388.00;;;;5048816;28;20447;-72
2023/01/23 04:43:31;;;;;;;3.70;2.60;;;2.70;99.90;3.70;97391.00;;;;5045898;28;20501;-67
2023/01/23 04:46:20;;;;;;;2.50;2.30;;;2.70;99.90;3.80;97380.00;;;;5044897;28;20428;-69
2023/01/23 04:49:08;;;;;;;3.77;2.33;;;2.80;99.90;3.80;97376.00;;;;5047446;28;20459;-68
2023/01/23 04:51:57;;;;;;;2.67;2.40;;;2.70;99.90;3.90;97393.00;;;;5048763;28;20454;-68
2023/01/23 04:54:46;;;;;;;2.43;2.17;;;2.90;99.90;3.90;97376.00;;;;5032399;28;20432;-73
2023/01/23 04:57:34;;;;;;;2.53;2.17;;;2.90;99.90;4.00;97359.00;;;;5043825;28;20430;-68
2023/01/23 05:00:25;;;;;;;7.60;2.27;;;2.90;99.90;4.20;97390.00;;;;5048697;28;20458;-68
2023/01/23 05:03:14;;;;;;;1.97;1.87;;;3.00;99.90;4.00;97394.00;;;;5031179;28;20918;-68
2023/01/23 05:06:03;;;;;;;2.77;2.00;;;3.00;99.90;4.30;97405.00;;;;5047507;28;20443;-70
2023/01/23 05:08:52;;;;;;;3.20;2.60;;;3.10;99.90;4.20;97391.00;;;;5048188;28;21005;-69
2023/01/23 05:11:40;;;;;;;2.60;1.80;;;3.20;99.90;4.20;97385.00;;;;5033406;28;20463;-68
2023/01/23 05:14:29;;;;;;;2.37;1.90;;;3.10;99.90;4.20;97385.00;;;;5027795;28;20432;-67
2023/01/23 05:17:19;;;;;;;2.43;2.20;;;3.10;99.90;4.40;97385.00;;;;5022324;28;20980;-68
2023/01/23 05:20:10;;;;;;;3.50;2.30;;;3.00;99.90;4.30;97388.00;;;;5022024;28;22249;-68
2023/01/23 05:22:59;;;;;;;3.03;2.20;;;3.20;99.90;4.40;97397.00;;;;5036058;28;20435;-68
2023/01/23 05:25:47;;;;;;;2.47;2.27;;;3.20;99.90;4.50;97393.00;;;;5038972;28;20423;-69
2023/01/23 05:28:36;;;;;;;2.60;2.13;;;3.30;99.90;4.50;97403.00;;;;5030779;28;21046;-72
2023/01/23 05:31:25;;;;;;;2.43;2.23;;;3.30;99.90;4.50;97401.00;;;;5021412;28;20456;-68
2023/01/23 05:34:15;;;;;;;3.07;2.47;;;3.30;99.90;4.40;97388.00;;;;5024154;28;20461;-68
2023/01/23 05:37:03;;;;;;;2.43;2.23;;;3.40;99.90;4.70;97406.00;;;;5029751;28;20428;-69
2023/01/23 05:39:52;;;;;;;3.70;2.40;;;3.40;99.90;4.70;97401.00;;;;5017972;28;20204;-70
2023/01/23 05:42:41;;;;;;;2.57;2.37;;;3.40;99.90;4.70;97398.00;;;;5023353;28;20443;-71
2023/01/23 05:45:29;;;;;;;7.93;2.77;;;3.50;99.90;4.80;97407.00;;;;5021451;28;20477;-68
2023/01/23 05:48:18;;;;;;;2.23;2.10;;;3.50;99.90;4.80;97408.00;;;;5027623;28;20494;-68
2023/01/23 05:51:08;;;;;;;3.27;2.33;;;3.50;99.90;4.80;97405.00;;;;5027380;28;20550;-69
2023/01/23 05:53:57;;;;;;;3.17;2.20;;;3.60;99.90;4.80;97397.00;;;;5024877;28;20224;-68
2023/01/23 05:56:46;;;;;;;5.83;2.37;;;3.60;99.90;4.70;97389.00;;;;5027253;28;20679;-69
2023/01/23 05:59:35;;;;;;;2.57;2.30;;;3.50;99.90;4.70;97400.00;;;;5026415;28;20205;-70
2023/01/23 06:02:23;;;;;;;3.97;2.03;;;3.60;99.90;4.70;97393.00;;;;5042486;28;20219;-68
2023/01/23 06:05:12;;;;;;;3.23;2.57;;;3.60;99.90;4.70;97394.00;;;;5047663;28;20423;-71
2023/01/23 06:08:02;;;;;;;3.93;2.40;;;3.60;99.90;4.70;97388.00;;;;5038343;28;20205;-69
2023/01/23 06:10:51;;;;;;;2.33;2.13;;;3.60;99.90;4.90;97378.00;;;;5025782;28;20518;-71
2023/01/23 06:13:40;;;;;;;1.90;1.70;;;3.60;99.90;4.70;97384.00;;;;5025778;28;20955;-70
2023/01/23 06:16:28;;;;;;;2.83;2.57;;;3.60;99.90;5.00;97387.00;;;;5026162;28;20221;-72
2023/01/23 06:19:17;;;;;;;2.30;2.17;;;3.70;99.90;5.20;97398.00;;;;5031872;28;20201;-69
2023/01/23 06:22:06;;;;;;;2.97;2.33;;;3.80;99.90;5.10;97411.00;;;;5040484;28;20226;-69
2023/01/23 06:24:56;;;;;;;2.63;2.00;;;3.90;99.90;5.20;97414.00;;;;5026231;28;20251;-71
2023/01/23 06:27:45;;;;;;;2.73;2.43;;;3.90;99.90;5.30;97409.00;;;;5025386;28;20451;-71
2023/01/23 06:30:33;;;;;;;2.37;2.17;;;4.00;99.90;5.20;97400.00;;;;5027750;28;20229;-71
2023/01/23 06:33:22;;;;;;;3.47;2.83;;;4.00;99.90;5.30;97415.00;;;;5024644;28;20193;-70
2023/01/23 06:36:11;;;;;;;2.47;2.20;;;4.00;99.90;5.20;97418.00;;;;5033596;28;20420;-73
2023/01/23 06:39:00;;;;;;;5.00;3.20;;;4.00;99.90;5.30;97424.00;;;;5027655;28;20208;-71
2023/01/23 06:41:50;;;;;;;2.80;1.90;;;4.00;99.90;5.20;97417.00;;;;5051612;28;20248;-72
2023/01/23 06:44:39;;;;;;;3.23;2.27;;;4.00;99.90;5.10;97422.00;;;;5029913;28;20705;-68
2023/01/23 06:47:27;;;;;;;5.60;2.23;;;4.00;99.90;5.20;97425.00;;;;5024887;28;20220;-69
2023/01/23 06:50:17;;;;;;;3.57;2.60;;;4.00;99.90;5.40;97431.00;;;;5023173;28;20283;-69
2023/01/23 06:53:06;;;;;;;3.20;2.00;;;4.10;99.90;5.30;97425.00;;;;5030348;28;20201;-69
2023/01/23 06:55:59;;;;;;;2.83;2.07;;;4.10;99.90;5.50;97440.00;;;;5031212;28;20232;-69
2023/01/23 06:58:49;;;;;;;3.17;2.67;;;4.10;99.90;5.70;97456.00;;;;5029972;28;20256;-71
2023/01/23 07:01:39;;;;;;;3.47;1.90;;;4.20;99.90;5.80;97449.00;;;;5032014;28;20229;-69
2023/01/23 07:04:28;;;;;;;4.10;2.83;;;4.40;99.90;5.90;97443.00;;;;5031254;28;20212;-69
2023/01/23 07:07:17;;;;;;;2.10;1.90;;;4.40;99.90;5.80;97442.00;;;;5030590;28;20440;-68
2023/01/23 07:10:08;;;;;;;3.60;2.63;;;4.50;99.90;5.90;97441.00;;;;5031264;28;20868;-71
2023/01/23 07:12:56;;;;;;;3.50;2.40;;;4.50;99.90;6.00;97443.00;;;;5035274;28;20688;-71
2023/01/23 07:15:47;;;;;;;2.77;2.57;;;4.60;99.90;6.00;97444.00;;;;5038546;28;20256;-69
2023/01/23 07:18:36;;;;;;;3.20;2.20;;;4.60;99.90;6.00;97436.00;;;;5033973;28;20206;-69
2023/01/23 07:21:25;;;;;;;2.13;1.93;;;4.60;99.90;5.70;97438.00;;;;5022588;28;20225;-69
2023/01/23 07:24:13;;;;;;;2.50;2.30;;;4.70;99.90;6.20;97440.00;;;;5030182;28;20209;-70
2023/01/23 07:27:02;;;;;;;5.83;2.80;;;4.70;99.90;6.30;97442.00;;;;5030129;28;20217;-70
2023/01/23 07:29:51;;;;;;;4.97;2.57;;;4.90;99.90;6.30;97442.00;;;;5028348;28;20224;-70
2023/01/23 07:32:41;;;;;;;2.10;1.90;;;4.90;99.90;6.60;97436.00;;;;5028452;28;20284;-73
2023/01/23 07:35:30;;;;;;;2.10;1.70;;;5.10;99.90;6.50;97442.00;;;;5029014;28;20202;-69
2023/01/23 07:38:19;;;;;;;2.60;1.97;;;5.20;99.90;6.60;97447.00;;;;5024673;28;20199;-69
2023/01/23 07:41:08;;;;;;;4.10;2.17;;;5.30;99.90;6.70;97436.00;;;;5048971;28;20221;-68
2023/01/23 07:43:56;;;;;;;3.17;2.20;;;5.30;99.90;6.70;97456.00;;;;5021267;28;20202;-69
2023/01/23 07:46:45;;;;;;;2.70;2.50;;;5.40;99.90;6.80;97458.00;;;;5040171;28;20201;-69
2023/01/23 07:49:35;;;;;;;3.63;2.70;;;5.40;99.90;6.80;97445.00;;;;5048975;28;20228;-68
2023/01/23 07:52:24;;;;;;;2.93;2.47;;;5.40;99.90;6.80;97441.00;;;;5049403;28;20228;-69
2023/01/23 07:55:13;;;;;;;5.13;4.10;;;5.40;99.90;6.70;97430.00;;;;5021639;28;20200;-74
2023/01/23 07:58:01;;;;;;;5.97;1.90;;;5.40;99.90;6.90;97437.00;;;;5026327;28;20625;-72
2023/01/23 08:00:50;;;;;;;1.67;1.57;;;5.50;99.90;6.70;97428.00;;;;5025172;28;20233;-72
2023/01/23 08:03:39;;;;;;;2.00;1.80;;;5.50;99.90;7.20;97443.00;;;;5032906;28;20202;-68
2023/01/23 08:06:29;;;;;;;5.73;3.67;;;5.70;99.90;7.20;97442.00;;;;5019339;28;20201;-67
2023/01/23 08:09:18;;;;;;;1.80;1.70;;;5.70;99.90;7.20;97438.00;;;;5029954;28;20675;-68
2023/01/23 08:12:07;;;;;;;2.37;2.13;;;5.80;99.90;7.30;97445.00;;;;5027766;28;20225;-70
2023/01/23 08:14:55;;;;;;;5.07;2.30;;;5.90;99.90;7.40;97441.00;;;;5049620;28;20683;-71
2023/01/23 08:17:44;;;;;;;2.37;2.17;;;5.90;99.90;7.40;97448.00;;;;5026205;28;20201;-71
2023/01/23 08:20:33;;;;;;;2.33;1.70;;;5.90;99.90;7.40;97451.00;;;;5033205;28;20642;-68
2023/01/23 08:23:26;;;;;;;2.60;2.20;;;5.90;99.90;7.50;97460.00;;;;5049141;28;20208;-68
2023/01/23 08:26:17;;;;;;;2.40;2.20;;;6.00;99.90;7.50;97457.00;;;;5050690;28;20262;-68
2023/01/23 08:29:06;;;;;;;4.07;2.20;;;6.00;99.90;7.60;97450.00;;;;5047931;28;20204;-68
2023/01/23 08:31:55;;;;;;;4.00;2.60;;;6.00;99.90;7.50;97450.00;;;;5028931;28;20268;-68
2023/01/23 08:34:44;;;;;;;2.37;1.70;;;6.10;99.90;7.60;97439.00;;;;5029543;28;20212;-69
2023/01/23 08:37:33;;;;;;;1.80;1.67;;;6.10;99.90;7.70;97446.00;;;;5048152;28;20196;-70
2023/01/23 08:40:23;;;;;;;2.77;2.50;;;6.10;99.90;7.70;97452.00;;;;5048658;28;20235;-69
2023/01/23 08:43:12;;;;;;;5.43;4.93;;;6.20;99.90;7.60;97457.00;;;;5048147;28;20708;-72
2023/01/23 08:46:01;;;;;;;3.50;3.20;;;6.20;99.90;7.70;97463.00;;;;5032836;28;20248;-70
2023/01/23 08:48:50;;;;;;;2.00;1.80;;;6.20;99.90;7.70;97469.00;;;;5029341;28;20221;-71
2023/01/23 08:51:39;;;;;;;2.10;1.93;;;6.20;99.90;7.70;97466.00;;;;5026548;28;20225;-70
2023/01/23 08:54:28;;;;;;;2.63;2.30;;;6.20;99.90;7.60;97470.00;;;;5024450;28;20634;-71
2023/01/23 08:57:18;;;;;;;1.87;1.53;;;6.20;99.90;7.60;97466.00;;;;5049853;28;20727;-69
2023/01/23 09:00:10;;;;;;;5.67;2.77;;;6.20;99.90;7.50;97462.00;;;;5046853;28;20682;-70
2023/01/23 09:03:00;;;;;;;1.80;1.67;;;6.20;99.90;7.50;97476.00;;;;5049573;28;20211;-69
2023/01/23 09:05:48;;;;;;;2.17;1.97;;;6.10;99.90;7.40;97490.00;;;;5047240;28;20212;-70
2023/01/23 09:08:37;;;;;;;3.87;2.50;;;6.10;99.90;7.40;97496.00;;;;5043477;28;20239;-69
2023/01/23 09:11:26;;;;;;;4.77;2.90;;;6.10;99.90;7.40;97511.00;;;;5021302;28;20730;-69
2023/01/23 09:14:16;;;;;;;3.17;2.40;;;6.10;99.90;7.30;97509.00;;;;5026088;28;20246;-70
2023/01/23 09:17:05;;;;;;;2.90;2.33;;;6.00;99.90;7.40;97521.00;;;;5029661;28;20206;-70
2023/01/23 09:19:54;;;;;;;7.73;2.67;;;6.00;99.90;7.40;97515.00;;;;5024151;28;20205;-70
2023/01/23 09:22:43;;;;;;;3.53;2.60;;;6.00;99.90;7.30;97504.00;;;;5028926;28;20216;-68
2023/01/23 09:25:32;;;;;;;6.87;2.77;;;5.90;99.90;7.20;97501.00;;;;5028620;28;20263;-68
2023/01/23 09:28:20;;;;;;;2.37;1.77;;;6.00;99.90;7.10;97493.00;;;;5028982;28;20232;-68
2023/01/23 09:31:13;;;;;;;3.53;2.40;;;5.80;99.90;6.60;97477.00;;;;5028766;28;20233;-68
2023/01/23 09:34:02;;;;;;;1.73;1.60;;;5.70;99.90;6.40;97463.00;;;;5045135;28;20201;-67
2023/01/23 09:36:52;;;;;;;3.53;2.37;;;5.60;99.90;6.80;97467.00;;;;5029403;28;20213;-67
2023/01/23 09:39:42;;;;;;;2.13;1.93;;;5.60;99.90;6.50;97460.00;;;;5029049;28;20268;-67
2023/01/23 09:42:34;;;;;;;1.73;1.53;;;5.50;99.90;6.90;97466.00;;;;5029428;28;20205;-67
2023/01/23 09:45:25;;;;;;;2.40;2.27;;;5.50;99.90;7.10;97460.00;;;;5031462;28;20685;-66
2023/01/23 09:48:24;;;;;;;1.53;1.43;;;5.60;99.90;7.00;97463.00;;;;5030939;28;20204;-67
2023/01/23 09:51:26;;;;;;;3.10;2.27;;;5.60;99.90;7.10;97467.00;;;;5026798;28;20222;-67
2023/01/23 09:54:29;;;;;;;6.77;2.23;;;5.70;99.90;6.80;97470.00;;;;5028643;28;20201;-66
2023/01/23 09:57:22;;;;;;;4.10;2.20;;;5.60;99.90;6.90;97467.00;;;;5027462;28;20220;-67
2023/01/23 10:00:20;;;;;;;2.60;2.43;;;5.60;99.90;7.00;97474.00;;;;5036841;28;20228;-68
2023/01/23 10:03:15;;;;;;;5.43;3.33;;;5.60;99.90;6.80;97474.00;;;;5053144;28;20200;-67
2023/01/23 10:06:20;;;;;;;6.23;3.90;;;5.60;99.90;6.80;97464.00;;;;5051872;28;20637;-67
2023/01/23 10:09:34;;;;;;;4.07;3.67;;;5.60;99.90;6.90;97476.00;;;;5051056;28;20197;-67
2023/01/23 10:12:39;;;;;;;6.63;3.53;;;5.60;99.90;6.80;97475.00;;;;5044422;28;20599;-67
2023/01/23 10:15:38;;;;;;;3.77;3.30;;;5.60;99.90;6.70;97460.00;;;;5030017;28;20198;-67
2023/01/23 10:18:36;;;;;;;4.93;3.77;;;5.50;99.90;6.70;97455.00;;;;5025049;28;20216;-68
2023/01/23 10:21:34;;;;;;;4.67;3.37;;;5.50;99.90;6.70;97460.00;;;;5025628;28;20221;-67
2023/01/23 10:24:40;;;;;;;3.73;3.40;;;5.50;99.90;6.60;97459.00;;;;5020825;28;20688;-68
2023/01/23 10:27:37;;;;;;;3.60;2.73;;;5.40;99.90;6.70;97461.00;;;;5030707;28;20209;-67
2023/01/23 10:30:29;;;;;;;7.00;3.57;;;5.40;99.90;6.50;97468.00;;;;5029931;28;20225;-67
2023/01/23 10:33:19;;;;;;;4.67;3.37;;;5.40;99.90;6.60;97467.00;;;;5030510;28;20228;-67
2023/01/23 10:36:20;;;;;;;3.80;3.27;;;5.40;99.90;6.70;97491.00;;;;5023541;28;20298;-67
2023/01/23 10:39:17;;;;;;;6.10;3.33;;;5.30;99.90;6.70;97482.00;;;;5031868;28;20197;-67
2023/01/23 10:42:11;;;;;;;6.63;4.10;;;5.30;99.90;6.60;97495.00;;;;5036767;28;20232;-67
2023/01/23 10:44:59;;;;;;;3.37;2.97;;;5.30;99.90;6.60;97475.00;;;;5034641;28;20268;-67
2023/01/23 10:47:49;;;;;;;6.00;3.00;;;5.30;99.90;6.60;97471.00;;;;5036600;28;20193;-67
2023/01/23 10:50:42;;;;;;;4.03;3.63;;;5.20;99.90;6.50;97475.00;;;;5029309;28;20213;-68
2023/01/23 10:53:31;;;;;;;7.37;3.37;;;5.20;99.90;6.50;97475.00;;;;5034347;28;20229;-66
2023/01/23 10:56:21;;;;;;;3.93;2.50;;;5.20;99.90;6.40;97471.00;;;;5029435;28;20271;-67
2023/01/23 10:59:22;;;;;;;9.33;3.87;;;5.20;99.90;6.50;97468.00;;;;5021338;28;20233;-67
2023/01/23 11:02:27;;;;;;;6.77;2.50;;;5.10;99.90;6.40;97464.00;;;;5031032;28;20251;-67
2023/01/23 11:05:39;;;;;;;6.07;3.67;;;5.10;99.90;6.40;97459.00;;;;5020026;28;20202;-67
2023/01/23 11:08:50;;;;;;;4.53;3.00;;;5.10;99.90;6.20;97449.00;;;;5022500;28;20205;-67
2023/01/23 11:11:41;;;;;;;3.60;2.73;;;5.10;99.90;6.40;97438.00;;;;5028216;28;20236;-66
2023/01/23 11:14:30;;;;;;;4.47;2.83;;;5.10;99.90;6.40;97438.00;;;;5026303;28;20269;-66
2023/01/23 11:17:23;;;;;;;5.20;2.50;;;5.10;99.90;6.40;97438.00;;;;5030555;28;20250;-66
2023/01/23 11:20:24;;;;;;;4.53;3.10;;;5.10;99.90;6.60;97439.00;;;;5027521;28;20224;-66
2023/01/23 11:23:18;;;;;;;5.33;3.30;;;5.10;99.90;6.70;97423.00;;;;5031141;28;20599;-66
2023/01/23 11:26:32;;;;;;;4.73;3.80;;;5.10;99.90;6.60;97431.00;;;;5031920;28;20201;-66
2023/01/23 11:29:25;;;;;;;3.60;3.30;;;5.10;99.90;6.50;97446.00;;;;5030921;28;20205;-67
2023/01/23 11:32:15;;;;;;;4.47;3.50;;;5.20;99.90;6.50;97451.00;;;;5029724;28;20240;-66
2023/01/23 11:35:13;;;;;;;7.13;4.07;;;5.20;99.90;6.60;97447.00;;;;5032967;28;20711;-65
2023/01/23 11:38:05;;;;;;;4.47;4.07;;;5.20;99.90;6.50;97442.00;;;;5050065;28;20197;-66
2023/01/23 11:40:54;;;;;;;4.80;3.93;;;5.20;99.90;6.60;97442.00;;;;5051183;28;20231;-66
2023/01/23 11:43:43;;;;;;;5.03;4.07;;;5.20;99.90;6.50;97439.00;;;;5049296;28;20201;-66
2023/01/23 11:46:54;;;;;;;5.70;4.10;;;5.20;99.90;6.30;97433.00;;;;5032620;28;20282;-66
2023/01/23 11:50:11;;;;;;;4.80;3.63;;;5.10;99.90;6.10;97429.00;;;;5031359;28;20205;-66
2023/01/23 11:53:07;;;;;;;3.63;2.93;;;5.10;99.90;6.30;97431.00;;;;5029585;28;20232;-67
2023/01/23 11:56:27;;;;;;;3.33;3.00;;;5.10;99.90;6.20;97410.00;;;;5028625;28;20225;-67
2023/01/23 11:59:43;;;;;;;7.63;4.10;;;5.00;99.90;6.30;97415.00;;;;5027644;28;20209;-67
2023/01/23 12:03:24;;;;;;;5.00;4.20;;;5.00;99.90;6.50;97419.00;;;;5030533;28;20209;-67
2023/01/23 12:06:37;;;;;;;5.30;3.63;;;5.10;99.90;6.60;97434.00;;;;5028990;28;20592;-67
2023/01/23 12:09:38;;;;;;;5.40;3.63;;;5.10;99.90;6.30;97437.00;;;;5048916;28;20235;-67
2023/01/23 12:12:49;;;;;;;5.37;4.27;;;5.10;99.90;6.40;97451.00;;;;5036603;28;20223;-67
2023/01/23 12:16:00;;;;;;;5.30;3.97;;;5.10;99.90;6.50;97458.00;;;;5032344;28;20205;-67
2023/01/23 12:19:10;;;;;;;5.40;4.37;;;5.10;99.90;6.40;97446.00;;;;5048103;28;20204;-66
2023/01/23 12:22:10;;;;;;;5.40;4.13;;;5.10;99.90;6.50;97452.00;;;;5045296;28;20224;-67
2023/01/23 12:25:19;;;;;;;6.53;3.70;;;5.10;99.90;6.60;97455.00;;;;5049831;28;20250;-67
2023/01/23 12:28:34;;;;;;;5.47;4.63;;;5.10;99.90;6.60;97446.00;;;;5048492;28;20280;-67
2023/01/23 12:31:39;;;;;;;4.57;3.87;;;5.20;99.90;6.50;97441.00;;;;5042108;28;20651;-66
2023/01/23 12:34:53;;;;;;;5.80;3.47;;;5.10;99.90;6.40;97441.00;;;;5018495;28;20209;-67
2023/01/23 12:38:16;;;;;;;4.13;3.60;;;5.20;99.90;6.20;97440.00;;;;5027816;28;20196;-67
2023/01/23 12:41:20;;;;;;;4.37;3.30;;;5.10;99.90;6.30;97437.00;;;;5050376;28;20221;-66
2023/01/23 12:44:15;;;;;;;5.77;4.63;;;5.10;99.90;6.30;97425.00;;;;5050070;28;20578;-67
2023/01/23 12:47:09;;;;;;;10.13;4.87;;;5.10;99.90;6.40;97439.00;;;;5050251;28;20200;-66
2023/01/23 12:50:02;;;;;;;6.53;4.73;;;5.20;99.90;6.40;97427.00;;;;5047833;28;20200;-66
2023/01/23 12:52:56;;;;;;;4.27;3.87;;;5.20;99.90;6.30;97433.00;;;;5044382;28;20632;-67
2023/01/23 12:55:57;;;;;;;5.03;4.17;;;5.10;99.90;6.30;97430.00;;;;5029718;28;20228;-67
2023/01/23 12:58:53;;;;;;;5.03;4.63;;;5.10;99.90;6.10;97430.00;;;;5028839;28;20204;-67
2023/01/23 13:01:58;;;;;;;7.10;4.60;;;5.10;99.90;6.50;97435.00;;;;5026246;28;20312;-67
2023/01/23 13:05:09;;;;;;;5.30;3.80;;;5.10;99.90;6.30;97426.00;;;;5022133;28;20203;-67
2023/01/23 13:08:06;;;;;;;6.27;5.17;;;5.10;99.90;6.50;97423.00;;;;5015273;28;20334;-66
2023/01/23 13:14:22;;;;;;;5.93;5.20;;;5.10;99.90;6.50;97422.00;;;;5047097;28;20246;-67